sensor_id;sensor_type;location;lat;lon;timestamp;P1;durP1;ratioP1;P2;durP2;ratioP2
48993;SDS011;34804;49.214;12.276;2023-04-26T00:00:34;9.70;;;4.00;;
48993;SDS011;34804;49.214;12.276;2023-04-26T00:03:01;8.50;;;3.10;;
48993;SDS011;34804;49.214;12.276;2023-04-26T00:05:30;6.93;;;3.30;;
48993;SDS011;34804;49.214;12.276;2023-04-26T00:07:57;9.15;;;3.22;;
48993;SDS011;34804;49.214;12.276;2023-04-26T00:10:24;6.70;;;2.75;;
48993;SDS011;34804;49.214;12.276;2023-04-26T00:12:51;8.15;;;3.15;;
48993;SDS011;34804;49.214;12.276;2023-04-26T00:15:18;6.63;;;2.72;;
48993;SDS011;34804;49.214;12.276;2023-04-26T00:17:45;5.43;;;2.70;;
48993;SDS011;34804;49.214;12.276;2023-04-26T00:20:12;7.43;;;3.33;;
48993;SDS011;34804;49.214;12.276;2023-04-26T00:22:39;8.57;;;3.28;;
48993;SDS011;34804;49.214;12.276;2023-04-26T00:25:06;9.95;;;3.42;;
48993;SDS011;34804;49.214;12.276;2023-04-26T00:27:33;9.90;;;4.13;;
48993;SDS011;34804;49.214;12.276;2023-04-26T00:30:00;5.85;;;3.20;;
48993;SDS011;34804;49.214;12.276;2023-04-26T00:32:28;10.63;;;3.55;;
48993;SDS011;34804;49.214;12.276;2023-04-26T00:34:56;6.63;;;2.60;;
48993;SDS011;34804;49.214;12.276;2023-04-26T00:37:23;6.18;;;3.03;;
48993;SDS011;34804;49.214;12.276;2023-04-26T00:39:50;6.45;;;3.15;;
48993;SDS011;34804;49.214;12.276;2023-04-26T00:42:16;8.93;;;3.25;;
48993;SDS011;34804;49.214;12.276;2023-04-26T00:44:45;6.70;;;3.28;;
48993;SDS011;34804;49.214;12.276;2023-04-26T00:47:11;6.45;;;3.22;;
48993;SDS011;34804;49.214;12.276;2023-04-26T00:49:38;7.95;;;3.17;;
48993;SDS011;34804;49.214;12.276;2023-04-26T00:52:05;8.88;;;3.42;;
48993;SDS011;34804;49.214;12.276;2023-04-26T00:54:33;6.90;;;3.30;;
48993;SDS011;34804;49.214;12.276;2023-04-26T00:57:00;10.95;;;4.20;;
48993;SDS011;34804;49.214;12.276;2023-04-26T00:59:27;7.55;;;3.40;;
48993;SDS011;34804;49.214;12.276;2023-04-26T01:01:54;7.50;;;3.30;;
48993;SDS011;34804;49.214;12.276;2023-04-26T01:04:23;8.88;;;3.83;;
48993;SDS011;34804;49.214;12.276;2023-04-26T01:06:52;7.07;;;3.65;;
48993;SDS011;34804;49.214;12.276;2023-04-26T01:09:20;8.13;;;3.60;;
48993;SDS011;34804;49.214;12.276;2023-04-26T01:11:47;6.93;;;3.22;;
48993;SDS011;34804;49.214;12.276;2023-04-26T01:14:15;7.85;;;3.20;;
48993;SDS011;34804;49.214;12.276;2023-04-26T01:16:42;7.78;;;3.97;;
48993;SDS011;34804;49.214;12.276;2023-04-26T01:19:12;10.38;;;4.15;;
48993;SDS011;34804;49.214;12.276;2023-04-26T01:21:39;7.13;;;3.65;;
48993;SDS011;34804;49.214;12.276;2023-04-26T01:24:10;7.97;;;3.38;;
48993;SDS011;34804;49.214;12.276;2023-04-26T01:26:38;8.85;;;3.75;;
48993;SDS011;34804;49.214;12.276;2023-04-26T01:29:12;9.35;;;3.45;;
48993;SDS011;34804;49.214;12.276;2023-04-26T01:31:43;7.43;;;3.45;;
48993;SDS011;34804;49.214;12.276;2023-04-26T01:34:11;7.70;;;2.90;;
48993;SDS011;34804;49.214;12.276;2023-04-26T01:36:38;5.82;;;2.60;;
48993;SDS011;34804;49.214;12.276;2023-04-26T01:39:05;4.93;;;2.35;;
48993;SDS011;34804;49.214;12.276;2023-04-26T01:41:33;6.03;;;2.60;;
48993;SDS011;34804;49.214;12.276;2023-04-26T01:44:00;6.68;;;2.80;;
48993;SDS011;34804;49.214;12.276;2023-04-26T01:46:28;6.45;;;2.65;;
48993;SDS011;34804;49.214;12.276;2023-04-26T01:48:55;6.70;;;3.15;;
48993;SDS011;34804;49.214;12.276;2023-04-26T01:51:22;6.30;;;2.63;;
48993;SDS011;34804;49.214;12.276;2023-04-26T01:53:49;5.70;;;2.70;;
48993;SDS011;34804;49.214;12.276;2023-04-26T01:56:16;8.65;;;3.25;;
48993;SDS011;34804;49.214;12.276;2023-04-26T01:58:45;6.90;;;3.15;;
48993;SDS011;34804;49.214;12.276;2023-04-26T02:01:11;10.05;;;2.90;;
48993;SDS011;34804;49.214;12.276;2023-04-26T02:03:38;7.32;;;3.47;;
48993;SDS011;34804;49.214;12.276;2023-04-26T02:06:06;9.77;;;3.60;;
48993;SDS011;34804;49.214;12.276;2023-04-26T02:08:32;9.20;;;3.90;;
48993;SDS011;34804;49.214;12.276;2023-04-26T02:10:59;5.60;;;2.90;;
48993;SDS011;34804;49.214;12.276;2023-04-26T02:13:26;5.82;;;2.75;;
48993;SDS011;34804;49.214;12.276;2023-04-26T02:15:54;5.47;;;2.47;;
48993;SDS011;34804;49.214;12.276;2023-04-26T02:18:21;7.28;;;2.80;;
48993;SDS011;34804;49.214;12.276;2023-04-26T02:20:48;6.10;;;3.10;;
48993;SDS011;34804;49.214;12.276;2023-04-26T02:23:15;7.30;;;3.30;;
48993;SDS011;34804;49.214;12.276;2023-04-26T02:25:46;5.97;;;2.95;;
48993;SDS011;34804;49.214;12.276;2023-04-26T02:28:14;7.78;;;3.17;;
48993;SDS011;34804;49.214;12.276;2023-04-26T02:30:41;12.52;;;4.07;;
48993;SDS011;34804;49.214;12.276;2023-04-26T02:33:08;8.65;;;4.03;;
48993;SDS011;34804;49.214;12.276;2023-04-26T02:35:36;9.90;;;4.40;;
48993;SDS011;34804;49.214;12.276;2023-04-26T02:38:03;9.13;;;4.55;;
48993;SDS011;34804;49.214;12.276;2023-04-26T02:40:30;10.07;;;4.32;;
48993;SDS011;34804;49.214;12.276;2023-04-26T02:42:57;8.48;;;2.70;;
48993;SDS011;34804;49.214;12.276;2023-04-26T02:45:23;9.15;;;2.47;;
48993;SDS011;34804;49.214;12.276;2023-04-26T02:47:50;5.75;;;2.55;;
48993;SDS011;34804;49.214;12.276;2023-04-26T02:50:17;8.07;;;2.45;;
48993;SDS011;34804;49.214;12.276;2023-04-26T02:52:44;7.55;;;2.90;;
48993;SDS011;34804;49.214;12.276;2023-04-26T02:55:11;6.65;;;2.67;;
48993;SDS011;34804;49.214;12.276;2023-04-26T02:57:38;7.90;;;3.00;;
48993;SDS011;34804;49.214;12.276;2023-04-26T03:00:05;7.90;;;2.95;;
48993;SDS011;34804;49.214;12.276;2023-04-26T03:02:33;7.07;;;3.80;;
48993;SDS011;34804;49.214;12.276;2023-04-26T03:05:00;7.97;;;3.38;;
48993;SDS011;34804;49.214;12.276;2023-04-26T03:07:27;7.72;;;4.03;;
48993;SDS011;34804;49.214;12.276;2023-04-26T03:09:54;7.38;;;3.40;;
48993;SDS011;34804;49.214;12.276;2023-04-26T03:12:21;8.48;;;3.65;;
48993;SDS011;34804;49.214;12.276;2023-04-26T03:14:47;10.10;;;3.95;;
48993;SDS011;34804;49.214;12.276;2023-04-26T03:17:14;7.95;;;3.70;;
48993;SDS011;34804;49.214;12.276;2023-04-26T03:19:41;6.90;;;3.20;;
48993;SDS011;34804;49.214;12.276;2023-04-26T03:22:08;8.68;;;3.40;;
48993;SDS011;34804;49.214;12.276;2023-04-26T03:24:36;7.35;;;3.08;;
48993;SDS011;34804;49.214;12.276;2023-04-26T03:27:03;6.45;;;3.90;;
48993;SDS011;34804;49.214;12.276;2023-04-26T03:29:30;7.05;;;3.33;;
48993;SDS011;34804;49.214;12.276;2023-04-26T03:31:57;7.47;;;3.10;;
48993;SDS011;34804;49.214;12.276;2023-04-26T03:34:24;7.32;;;3.05;;
48993;SDS011;34804;49.214;12.276;2023-04-26T03:36:52;8.10;;;2.80;;
48993;SDS011;34804;49.214;12.276;2023-04-26T03:39:19;8.60;;;3.72;;
48993;SDS011;34804;49.214;12.276;2023-04-26T03:41:45;8.20;;;3.00;;
48993;SDS011;34804;49.214;12.276;2023-04-26T03:44:12;7.10;;;3.33;;
48993;SDS011;34804;49.214;12.276;2023-04-26T03:46:39;10.93;;;3.40;;
48993;SDS011;34804;49.214;12.276;2023-04-26T03:49:06;7.43;;;2.88;;
48993;SDS011;34804;49.214;12.276;2023-04-26T03:51:33;7.95;;;3.15;;
48993;SDS011;34804;49.214;12.276;2023-04-26T03:54:00;10.90;;;3.28;;
48993;SDS011;34804;49.214;12.276;2023-04-26T03:56:27;18.52;;;3.55;;
48993;SDS011;34804;49.214;12.276;2023-04-26T03:58:53;8.52;;;2.95;;
48993;SDS011;34804;49.214;12.276;2023-04-26T04:01:20;9.07;;;2.50;;
48993;SDS011;34804;49.214;12.276;2023-04-26T04:03:47;8.07;;;2.88;;
48993;SDS011;34804;49.214;12.276;2023-04-26T04:06:14;12.75;;;4.90;;
48993;SDS011;34804;49.214;12.276;2023-04-26T04:08:42;7.28;;;3.08;;
48993;SDS011;34804;49.214;12.276;2023-04-26T04:11:08;7.78;;;3.05;;
48993;SDS011;34804;49.214;12.276;2023-04-26T04:13:35;7.55;;;3.35;;
48993;SDS011;34804;49.214;12.276;2023-04-26T04:16:02;8.10;;;3.03;;
48993;SDS011;34804;49.214;12.276;2023-04-26T04:18:29;7.72;;;3.22;;
48993;SDS011;34804;49.214;12.276;2023-04-26T04:20:56;6.25;;;3.08;;
48993;SDS011;34804;49.214;12.276;2023-04-26T04:23:23;8.35;;;3.33;;
48993;SDS011;34804;49.214;12.276;2023-04-26T04:25:50;9.13;;;4.30;;
48993;SDS011;34804;49.214;12.276;2023-04-26T04:28:17;9.02;;;4.00;;
48993;SDS011;34804;49.214;12.276;2023-04-26T04:30:44;7.22;;;3.80;;
48993;SDS011;34804;49.214;12.276;2023-04-26T04:33:12;9.80;;;4.47;;
48993;SDS011;34804;49.214;12.276;2023-04-26T04:35:42;7.35;;;3.72;;
48993;SDS011;34804;49.214;12.276;2023-04-26T04:38:10;6.95;;;3.40;;
48993;SDS011;34804;49.214;12.276;2023-04-26T04:40:36;8.65;;;4.00;;
48993;SDS011;34804;49.214;12.276;2023-04-26T04:43:03;9.52;;;3.72;;
48993;SDS011;34804;49.214;12.276;2023-04-26T04:45:30;7.32;;;3.70;;
48993;SDS011;34804;49.214;12.276;2023-04-26T04:47:56;7.47;;;3.33;;
48993;SDS011;34804;49.214;12.276;2023-04-26T04:50:23;8.93;;;3.80;;
48993;SDS011;34804;49.214;12.276;2023-04-26T04:52:50;10.27;;;4.43;;
48993;SDS011;34804;49.214;12.276;2023-04-26T04:55:17;9.02;;;3.83;;
48993;SDS011;34804;49.214;12.276;2023-04-26T04:57:44;8.93;;;3.15;;
48993;SDS011;34804;49.214;12.276;2023-04-26T05:00:11;8.32;;;3.85;;
48993;SDS011;34804;49.214;12.276;2023-04-26T05:02:39;8.70;;;3.83;;
48993;SDS011;34804;49.214;12.276;2023-04-26T05:05:06;9.65;;;4.18;;
48993;SDS011;34804;49.214;12.276;2023-04-26T05:07:34;8.55;;;4.47;;
48993;SDS011;34804;49.214;12.276;2023-04-26T05:10:01;8.77;;;4.78;;
48993;SDS011;34804;49.214;12.276;2023-04-26T05:12:29;9.38;;;4.28;;
48993;SDS011;34804;49.214;12.276;2023-04-26T05:14:56;11.80;;;5.63;;
48993;SDS011;34804;49.214;12.276;2023-04-26T05:17:23;9.38;;;4.75;;
48993;SDS011;34804;49.214;12.276;2023-04-26T05:19:50;15.15;;;6.00;;
48993;SDS011;34804;49.214;12.276;2023-04-26T05:22:17;30.63;;;11.02;;
48993;SDS011;34804;49.214;12.276;2023-04-26T05:24:47;21.08;;;8.48;;
48993;SDS011;34804;49.214;12.276;2023-04-26T05:27:14;26.80;;;10.98;;
48993;SDS011;34804;49.214;12.276;2023-04-26T05:29:41;25.83;;;10.32;;
48993;SDS011;34804;49.214;12.276;2023-04-26T05:32:08;27.83;;;11.77;;
48993;SDS011;34804;49.214;12.276;2023-04-26T05:34:35;21.35;;;8.73;;
48993;SDS011;34804;49.214;12.276;2023-04-26T05:37:02;18.38;;;7.95;;
48993;SDS011;34804;49.214;12.276;2023-04-26T05:39:29;23.98;;;9.27;;
48993;SDS011;34804;49.214;12.276;2023-04-26T05:41:57;13.95;;;6.20;;
48993;SDS011;34804;49.214;12.276;2023-04-26T05:44:23;18.60;;;7.40;;
48993;SDS011;34804;49.214;12.276;2023-04-26T05:46:50;17.70;;;6.72;;
48993;SDS011;34804;49.214;12.276;2023-04-26T05:49:17;15.82;;;6.47;;
48993;SDS011;34804;49.214;12.276;2023-04-26T05:51:44;18.60;;;6.72;;
48993;SDS011;34804;49.214;12.276;2023-04-26T05:54:10;14.63;;;6.15;;
48993;SDS011;34804;49.214;12.276;2023-04-26T05:56:37;15.82;;;6.22;;
48993;SDS011;34804;49.214;12.276;2023-04-26T05:59:04;16.13;;;6.75;;
48993;SDS011;34804;49.214;12.276;2023-04-26T06:01:31;11.85;;;5.20;;
48993;SDS011;34804;49.214;12.276;2023-04-26T06:03:57;9.98;;;4.97;;
48993;SDS011;34804;49.214;12.276;2023-04-26T06:06:27;12.73;;;5.10;;
48993;SDS011;34804;49.214;12.276;2023-04-26T06:08:53;9.85;;;4.75;;
48993;SDS011;34804;49.214;12.276;2023-04-26T06:11:20;14.23;;;4.97;;
48993;SDS011;34804;49.214;12.276;2023-04-26T06:13:47;10.98;;;4.63;;
48993;SDS011;34804;49.214;12.276;2023-04-26T06:16:15;7.85;;;4.53;;
48993;SDS011;34804;49.214;12.276;2023-04-26T06:18:42;15.75;;;5.80;;
48993;SDS011;34804;49.214;12.276;2023-04-26T06:21:09;12.00;;;5.13;;
48993;SDS011;34804;49.214;12.276;2023-04-26T06:23:36;12.63;;;4.60;;
48993;SDS011;34804;49.214;12.276;2023-04-26T06:26:02;10.00;;;4.65;;
48993;SDS011;34804;49.214;12.276;2023-04-26T06:28:29;11.60;;;4.57;;
48993;SDS011;34804;49.214;12.276;2023-04-26T06:30:56;11.27;;;4.18;;
48993;SDS011;34804;49.214;12.276;2023-04-26T06:33:23;8.65;;;3.80;;
48993;SDS011;34804;49.214;12.276;2023-04-26T06:35:50;7.70;;;4.28;;
48993;SDS011;34804;49.214;12.276;2023-04-26T06:38:17;10.88;;;4.05;;
48993;SDS011;34804;49.214;12.276;2023-04-26T06:40:44;8.27;;;3.67;;
48993;SDS011;34804;49.214;12.276;2023-04-26T06:43:11;7.45;;;3.30;;
48993;SDS011;34804;49.214;12.276;2023-04-26T06:45:38;9.30;;;3.72;;
48993;SDS011;34804;49.214;12.276;2023-04-26T06:48:08;8.95;;;3.00;;
48993;SDS011;34804;49.214;12.276;2023-04-26T06:50:38;7.97;;;2.45;;
48993;SDS011;34804;49.214;12.276;2023-04-26T06:53:09;9.25;;;2.70;;
48993;SDS011;34804;49.214;12.276;2023-04-26T06:55:35;5.78;;;2.10;;
48993;SDS011;34804;49.214;12.276;2023-04-26T06:58:02;7.78;;;2.65;;
48993;SDS011;34804;49.214;12.276;2023-04-26T07:00:29;7.05;;;2.00;;
48993;SDS011;34804;49.214;12.276;2023-04-26T07:02:56;5.10;;;2.28;;
48993;SDS011;34804;49.214;12.276;2023-04-26T07:05:23;6.57;;;1.88;;
48993;SDS011;34804;49.214;12.276;2023-04-26T07:07:50;4.03;;;1.67;;
48993;SDS011;34804;49.214;12.276;2023-04-26T07:10:16;6.13;;;2.10;;
48993;SDS011;34804;49.214;12.276;2023-04-26T07:12:43;5.47;;;1.92;;
48993;SDS011;34804;49.214;12.276;2023-04-26T07:15:10;5.75;;;2.05;;
48993;SDS011;34804;49.214;12.276;2023-04-26T07:17:37;6.38;;;1.90;;
48993;SDS011;34804;49.214;12.276;2023-04-26T07:20:04;6.32;;;2.10;;
48993;SDS011;34804;49.214;12.276;2023-04-26T07:22:32;5.45;;;1.92;;
48993;SDS011;34804;49.214;12.276;2023-04-26T07:24:59;6.38;;;2.00;;
48993;SDS011;34804;49.214;12.276;2023-04-26T07:27:25;6.07;;;2.10;;
48993;SDS011;34804;49.214;12.276;2023-04-26T07:29:53;5.38;;;1.67;;
48993;SDS011;34804;49.214;12.276;2023-04-26T07:32:21;8.18;;;2.10;;
48993;SDS011;34804;49.214;12.276;2023-04-26T07:34:48;3.30;;;1.35;;
48993;SDS011;34804;49.214;12.276;2023-04-26T07:37:15;8.02;;;1.98;;
48993;SDS011;34804;49.214;12.276;2023-04-26T07:39:42;4.97;;;1.90;;
48993;SDS011;34804;49.214;12.276;2023-04-26T07:42:09;7.07;;;2.10;;
48993;SDS011;34804;49.214;12.276;2023-04-26T07:44:36;9.45;;;2.63;;
48993;SDS011;34804;49.214;12.276;2023-04-26T07:47:03;8.48;;;1.90;;
48993;SDS011;34804;49.214;12.276;2023-04-26T07:49:29;9.25;;;2.25;;
48993;SDS011;34804;49.214;12.276;2023-04-26T07:51:56;6.63;;;2.05;;
48993;SDS011;34804;49.214;12.276;2023-04-26T07:54:27;6.32;;;2.20;;
48993;SDS011;34804;49.214;12.276;2023-04-26T07:56:54;8.02;;;2.20;;
48993;SDS011;34804;49.214;12.276;2023-04-26T07:59:21;9.50;;;2.20;;
48993;SDS011;34804;49.214;12.276;2023-04-26T08:01:48;6.13;;;2.17;;
48993;SDS011;34804;49.214;12.276;2023-04-26T08:04:16;5.90;;;2.60;;
48993;SDS011;34804;49.214;12.276;2023-04-26T08:06:44;7.57;;;1.83;;
48993;SDS011;34804;49.214;12.276;2023-04-26T08:09:13;5.38;;;2.15;;
48993;SDS011;34804;49.214;12.276;2023-04-26T08:11:40;7.47;;;2.20;;
48993;SDS011;34804;49.214;12.276;2023-04-26T08:14:07;6.82;;;2.28;;
48993;SDS011;34804;49.214;12.276;2023-04-26T08:16:34;5.13;;;1.65;;
48993;SDS011;34804;49.214;12.276;2023-04-26T08:19:01;7.18;;;2.20;;
48993;SDS011;34804;49.214;12.276;2023-04-26T08:21:28;5.97;;;2.80;;
48993;SDS011;34804;49.214;12.276;2023-04-26T08:23:56;7.97;;;2.15;;
48993;SDS011;34804;49.214;12.276;2023-04-26T08:26:22;5.30;;;1.90;;
48993;SDS011;34804;49.214;12.276;2023-04-26T08:28:50;4.72;;;1.52;;
48993;SDS011;34804;49.214;12.276;2023-04-26T08:31:17;5.30;;;1.70;;
48993;SDS011;34804;49.214;12.276;2023-04-26T08:33:43;4.82;;;1.77;;
48993;SDS011;34804;49.214;12.276;2023-04-26T08:36:10;4.80;;;1.70;;
48993;SDS011;34804;49.214;12.276;2023-04-26T08:38:38;9.13;;;2.17;;
48993;SDS011;34804;49.214;12.276;2023-04-26T08:41:04;4.88;;;1.80;;
48993;SDS011;34804;49.214;12.276;2023-04-26T08:43:35;5.13;;;2.08;;
48993;SDS011;34804;49.214;12.276;2023-04-26T08:46:05;7.07;;;2.15;;
48993;SDS011;34804;49.214;12.276;2023-04-26T08:48:36;8.23;;;2.23;;
48993;SDS011;34804;49.214;12.276;2023-04-26T08:51:03;7.68;;;2.25;;
48993;SDS011;34804;49.214;12.276;2023-04-26T08:53:33;4.72;;;1.90;;
48993;SDS011;34804;49.214;12.276;2023-04-26T08:56:01;4.57;;;1.92;;
48993;SDS011;34804;49.214;12.276;2023-04-26T08:58:29;7.07;;;1.92;;
48993;SDS011;34804;49.214;12.276;2023-04-26T09:00:57;7.88;;;1.90;;
48993;SDS011;34804;49.214;12.276;2023-04-26T09:03:26;7.68;;;2.10;;
48993;SDS011;34804;49.214;12.276;2023-04-26T09:05:53;3.95;;;1.60;;
48993;SDS011;34804;49.214;12.276;2023-04-26T09:08:20;6.43;;;1.67;;
48993;SDS011;34804;49.214;12.276;2023-04-26T09:10:47;8.05;;;2.25;;
48993;SDS011;34804;49.214;12.276;2023-04-26T09:13:14;6.18;;;2.10;;
48993;SDS011;34804;49.214;12.276;2023-04-26T09:15:41;5.50;;;2.10;;
48993;SDS011;34804;49.214;12.276;2023-04-26T09:18:15;5.20;;;1.90;;
48993;SDS011;34804;49.214;12.276;2023-04-26T09:20:43;5.72;;;1.70;;
48993;SDS011;34804;49.214;12.276;2023-04-26T09:23:11;6.97;;;2.20;;
48993;SDS011;34804;49.214;12.276;2023-04-26T09:25:38;4.90;;;1.92;;
48993;SDS011;34804;49.214;12.276;2023-04-26T09:28:19;7.68;;;2.15;;
48993;SDS011;34804;49.214;12.276;2023-04-26T09:30:47;6.88;;;2.25;;
48993;SDS011;34804;49.214;12.276;2023-04-26T09:33:15;7.15;;;2.28;;
48993;SDS011;34804;49.214;12.276;2023-04-26T09:35:42;5.65;;;1.83;;
48993;SDS011;34804;49.214;12.276;2023-04-26T09:38:10;6.03;;;2.30;;
48993;SDS011;34804;49.214;12.276;2023-04-26T09:43:09;6.10;;;1.90;;
48993;SDS011;34804;49.214;12.276;2023-04-26T09:45:47;5.38;;;1.92;;
48993;SDS011;34804;49.214;12.276;2023-04-26T09:48:23;5.78;;;1.80;;
48993;SDS011;34804;49.214;12.276;2023-04-26T09:50:52;6.10;;;2.05;;
48993;SDS011;34804;49.214;12.276;2023-04-26T09:53:24;5.25;;;2.00;;
48993;SDS011;34804;49.214;12.276;2023-04-26T09:56:06;9.32;;;2.10;;
48993;SDS011;34804;49.214;12.276;2023-04-26T10:01:24;5.38;;;2.03;;
48993;SDS011;34804;49.214;12.276;2023-04-26T10:03:55;6.25;;;1.80;;
48993;SDS011;34804;49.214;12.276;2023-04-26T10:06:23;4.28;;;1.75;;
48993;SDS011;34804;49.214;12.276;2023-04-26T10:08:50;6.65;;;1.90;;
48993;SDS011;34804;49.214;12.276;2023-04-26T10:11:17;5.25;;;1.80;;
48993;SDS011;34804;49.214;12.276;2023-04-26T10:13:45;5.78;;;2.05;;
48993;SDS011;34804;49.214;12.276;2023-04-26T10:16:15;6.63;;;2.30;;
48993;SDS011;34804;49.214;12.276;2023-04-26T10:18:42;5.85;;;2.00;;
48993;SDS011;34804;49.214;12.276;2023-04-26T10:21:10;4.93;;;1.80;;
48993;SDS011;34804;49.214;12.276;2023-04-26T10:23:42;5.53;;;1.67;;
48993;SDS011;34804;49.214;12.276;2023-04-26T10:29:18;5.75;;;1.95;;
48993;SDS011;34804;49.214;12.276;2023-04-26T10:34:32;4.15;;;1.77;;
48993;SDS011;34804;49.214;12.276;2023-04-26T10:37:07;6.20;;;2.00;;
48993;SDS011;34804;49.214;12.276;2023-04-26T10:39:42;6.93;;;2.35;;
48993;SDS011;34804;49.214;12.276;2023-04-26T10:44:57;6.43;;;1.90;;
48993;SDS011;34804;49.214;12.276;2023-04-26T10:47:29;7.65;;;2.33;;
48993;SDS011;34804;49.214;12.276;2023-04-26T10:50:40;11.23;;;2.67;;
48993;SDS011;34804;49.214;12.276;2023-04-26T10:55:39;6.88;;;2.28;;
48993;SDS011;34804;49.214;12.276;2023-04-26T10:58:26;5.95;;;2.30;;
48993;SDS011;34804;49.214;12.276;2023-04-26T11:03:30;5.15;;;1.80;;
48993;SDS011;34804;49.214;12.276;2023-04-26T11:05:57;7.63;;;1.73;;
48993;SDS011;34804;49.214;12.276;2023-04-26T11:13:40;6.93;;;2.08;;
48993;SDS011;34804;49.214;12.276;2023-04-26T11:16:08;6.22;;;2.20;;
48993;SDS011;34804;49.214;12.276;2023-04-26T11:18:37;7.22;;;2.00;;
48993;SDS011;34804;49.214;12.276;2023-04-26T11:21:05;8.98;;;2.45;;
48993;SDS011;34804;49.214;12.276;2023-04-26T11:23:33;5.68;;;2.22;;
48993;SDS011;34804;49.214;12.276;2023-04-26T11:26:05;7.40;;;2.17;;
48993;SDS011;34804;49.214;12.276;2023-04-26T11:28:35;5.03;;;2.33;;
48993;SDS011;34804;49.214;12.276;2023-04-26T11:31:03;6.57;;;2.20;;
48993;SDS011;34804;49.214;12.276;2023-04-26T11:33:32;5.50;;;2.50;;
48993;SDS011;34804;49.214;12.276;2023-04-26T11:35:59;6.20;;;1.92;;
48993;SDS011;34804;49.214;12.276;2023-04-26T11:38:27;5.97;;;2.05;;
48993;SDS011;34804;49.214;12.276;2023-04-26T11:40:59;6.40;;;2.17;;
48993;SDS011;34804;49.214;12.276;2023-04-26T11:43:30;6.55;;;2.08;;
48993;SDS011;34804;49.214;12.276;2023-04-26T11:46:07;6.88;;;2.60;;
48993;SDS011;34804;49.214;12.276;2023-04-26T11:48:45;8.95;;;2.75;;
48993;SDS011;34804;49.214;12.276;2023-04-26T11:51:12;6.78;;;2.20;;
48993;SDS011;34804;49.214;12.276;2023-04-26T11:53:39;6.90;;;2.50;;
48993;SDS011;34804;49.214;12.276;2023-04-26T11:56:16;5.45;;;2.15;;
48993;SDS011;34804;49.214;12.276;2023-04-26T11:58:45;7.07;;;2.47;;
48993;SDS011;34804;49.214;12.276;2023-04-26T12:01:19;6.47;;;2.35;;
48993;SDS011;34804;49.214;12.276;2023-04-26T12:03:51;6.68;;;2.33;;
48993;SDS011;34804;49.214;12.276;2023-04-26T12:06:30;4.95;;;2.10;;
48993;SDS011;34804;49.214;12.276;2023-04-26T12:09:07;6.50;;;2.15;;
48993;SDS011;34804;49.214;12.276;2023-04-26T12:11:37;7.13;;;2.55;;
48993;SDS011;34804;49.214;12.276;2023-04-26T12:14:04;8.32;;;3.15;;
48993;SDS011;34804;49.214;12.276;2023-04-26T12:16:36;7.20;;;2.58;;
48993;SDS011;34804;49.214;12.276;2023-04-26T12:19:03;6.28;;;2.35;;
48993;SDS011;34804;49.214;12.276;2023-04-26T12:21:41;7.30;;;2.45;;
48993;SDS011;34804;49.214;12.276;2023-04-26T12:24:22;6.68;;;2.45;;
48993;SDS011;34804;49.214;12.276;2023-04-26T12:26:50;5.80;;;2.15;;
48993;SDS011;34804;49.214;12.276;2023-04-26T12:29:17;7.57;;;2.45;;
48993;SDS011;34804;49.214;12.276;2023-04-26T12:31:43;8.48;;;2.80;;
48993;SDS011;34804;49.214;12.276;2023-04-26T12:34:11;7.28;;;2.25;;
48993;SDS011;34804;49.214;12.276;2023-04-26T12:36:39;6.05;;;2.30;;
48993;SDS011;34804;49.214;12.276;2023-04-26T12:39:10;7.47;;;2.20;;
48993;SDS011;34804;49.214;12.276;2023-04-26T12:41:39;5.40;;;1.80;;
48993;SDS011;34804;49.214;12.276;2023-04-26T12:44:07;4.88;;;2.13;;
48993;SDS011;34804;49.214;12.276;2023-04-26T12:46:35;5.03;;;2.33;;
48993;SDS011;34804;49.214;12.276;2023-04-26T12:49:03;5.93;;;2.50;;
48993;SDS011;34804;49.214;12.276;2023-04-26T12:51:30;5.78;;;2.13;;
48993;SDS011;34804;49.214;12.276;2023-04-26T12:53:59;7.07;;;2.70;;
48993;SDS011;34804;49.214;12.276;2023-04-26T12:56:27;7.82;;;2.47;;
48993;SDS011;34804;49.214;12.276;2023-04-26T12:58:55;5.75;;;2.30;;
48993;SDS011;34804;49.214;12.276;2023-04-26T13:01:22;7.20;;;2.30;;
48993;SDS011;34804;49.214;12.276;2023-04-26T13:03:49;7.20;;;2.30;;
48993;SDS011;34804;49.214;12.276;2023-04-26T13:06:16;6.20;;;2.22;;
48993;SDS011;34804;49.214;12.276;2023-04-26T13:08:43;5.30;;;2.13;;
48993;SDS011;34804;49.214;12.276;2023-04-26T13:11:10;7.20;;;2.45;;
48993;SDS011;34804;49.214;12.276;2023-04-26T13:13:37;7.18;;;2.15;;
48993;SDS011;34804;49.214;12.276;2023-04-26T13:16:09;6.35;;;2.20;;
48993;SDS011;34804;49.214;12.276;2023-04-26T13:18:38;6.00;;;2.30;;
48993;SDS011;34804;49.214;12.276;2023-04-26T13:21:05;8.55;;;2.08;;
48993;SDS011;34804;49.214;12.276;2023-04-26T13:23:32;8.60;;;1.98;;
48993;SDS011;34804;49.214;12.276;2023-04-26T13:25:59;5.88;;;2.38;;
48993;SDS011;34804;49.214;12.276;2023-04-26T13:28:26;4.45;;;1.70;;
48993;SDS011;34804;49.214;12.276;2023-04-26T13:30:52;5.78;;;2.17;;
48993;SDS011;34804;49.214;12.276;2023-04-26T13:33:21;5.50;;;2.13;;
48993;SDS011;34804;49.214;12.276;2023-04-26T13:35:47;7.63;;;2.30;;
48993;SDS011;34804;49.214;12.276;2023-04-26T13:38:14;4.65;;;1.90;;
48993;SDS011;34804;49.214;12.276;2023-04-26T13:40:42;6.15;;;2.03;;
48993;SDS011;34804;49.214;12.276;2023-04-26T13:43:09;4.82;;;2.20;;
48993;SDS011;34804;49.214;12.276;2023-04-26T13:45:36;6.15;;;1.75;;
48993;SDS011;34804;49.214;12.276;2023-04-26T13:48:04;6.15;;;2.60;;
48993;SDS011;34804;49.214;12.276;2023-04-26T13:50:31;7.80;;;2.40;;
48993;SDS011;34804;49.214;12.276;2023-04-26T13:52:58;5.35;;;1.90;;
48993;SDS011;34804;49.214;12.276;2023-04-26T13:55:25;6.03;;;2.05;;
48993;SDS011;34804;49.214;12.276;2023-04-26T13:57:55;7.32;;;2.40;;
48993;SDS011;34804;49.214;12.276;2023-04-26T14:00:23;5.20;;;2.15;;
48993;SDS011;34804;49.214;12.276;2023-04-26T14:02:50;5.82;;;1.65;;
48993;SDS011;34804;49.214;12.276;2023-04-26T14:05:17;6.38;;;1.98;;
48993;SDS011;34804;49.214;12.276;2023-04-26T14:07:45;8.38;;;2.63;;
48993;SDS011;34804;49.214;12.276;2023-04-26T14:10:12;5.57;;;2.00;;
48993;SDS011;34804;49.214;12.276;2023-04-26T14:12:39;5.78;;;2.13;;
48993;SDS011;34804;49.214;12.276;2023-04-26T14:15:06;4.82;;;2.10;;
48993;SDS011;34804;49.214;12.276;2023-04-26T14:17:34;5.55;;;1.70;;
48993;SDS011;34804;49.214;12.276;2023-04-26T14:20:04;6.05;;;2.47;;
48993;SDS011;34804;49.214;12.276;2023-04-26T14:22:33;4.38;;;1.98;;
48993;SDS011;34804;49.214;12.276;2023-04-26T14:25:01;6.35;;;2.00;;
48993;SDS011;34804;49.214;12.276;2023-04-26T14:27:28;6.95;;;2.10;;
48993;SDS011;34804;49.214;12.276;2023-04-26T14:29:55;5.53;;;1.85;;
48993;SDS011;34804;49.214;12.276;2023-04-26T14:32:21;6.07;;;1.73;;
48993;SDS011;34804;49.214;12.276;2023-04-26T14:34:48;3.83;;;1.80;;
48993;SDS011;34804;49.214;12.276;2023-04-26T14:37:16;4.97;;;1.90;;
48993;SDS011;34804;49.214;12.276;2023-04-26T14:39:48;5.53;;;2.10;;
48993;SDS011;34804;49.214;12.276;2023-04-26T14:42:15;6.53;;;1.88;;
48993;SDS011;34804;49.214;12.276;2023-04-26T14:44:42;6.68;;;1.77;;
48993;SDS011;34804;49.214;12.276;2023-04-26T14:47:11;5.22;;;2.10;;
48993;SDS011;34804;49.214;12.276;2023-04-26T14:49:38;4.57;;;1.73;;
48993;SDS011;34804;49.214;12.276;2023-04-26T14:52:04;4.43;;;1.80;;
48993;SDS011;34804;49.214;12.276;2023-04-26T14:54:36;7.32;;;2.05;;
48993;SDS011;34804;49.214;12.276;2023-04-26T14:57:04;5.10;;;1.85;;
48993;SDS011;34804;49.214;12.276;2023-04-26T14:59:31;3.90;;;1.55;;
48993;SDS011;34804;49.214;12.276;2023-04-26T15:01:58;6.50;;;2.30;;